createdAt,value
2019-03-13T00:00:39.158Z,6.82
2019-03-13T00:01:39.122Z,6.75
2019-03-13T00:02:39.047Z,6.81
2019-03-13T00:03:38.989Z,6.84
2019-03-13T00:04:38.933Z,6.87
2019-03-13T00:05:38.875Z,6.92
2019-03-13T00:06:38.853Z,6.92
2019-03-13T00:07:38.768Z,6.89
2019-03-13T00:08:38.710Z,6.95
2019-03-13T00:09:38.650Z,6.93
2019-03-13T00:10:38.599Z,6.92
2019-03-13T00:11:38.572Z,7.05
2019-03-13T00:12:38.485Z,7.05
2019-03-13T00:13:38.428Z,7.02
2019-03-13T00:14:38.373Z,7.02
2019-03-13T00:15:38.316Z,7.05
2019-03-13T00:16:38.292Z,7.06
2019-03-13T00:17:38.204Z,7.00
2019-03-13T00:18:38.177Z,7.20
2019-03-13T00:19:38.092Z,7.20
2019-03-13T00:20:38.040Z,7.13
2019-03-13T00:21:37.985Z,7.13
2019-03-13T00:22:37.926Z,7.10
2019-03-13T00:23:37.901Z,7.14
2019-03-13T00:24:37.814Z,7.13
2019-03-13T00:25:37.756Z,7.13
2019-03-13T00:26:37.702Z,7.20
2019-03-13T00:27:37.644Z,7.15
2019-03-13T00:28:37.621Z,7.18
2019-03-13T00:29:37.534Z,7.31
2019-03-13T00:30:37.486Z,7.29
2019-03-13T00:31:37.422Z,7.31
2019-03-13T00:32:37.372Z,7.35
2019-03-13T00:33:37.354Z,7.29
2019-03-13T00:34:37.258Z,7.25
2019-03-13T00:35:37.199Z,7.00
2019-03-13T00:36:37.144Z,7.02
2019-03-13T00:37:37.089Z,6.85
2019-03-13T00:38:37.067Z,6.72
2019-03-13T00:39:36.978Z,6.44
2019-03-13T00:40:36.954Z,6.28
2019-03-13T00:41:36.865Z,6.09
2019-03-13T00:42:36.824Z,5.91
2019-03-13T00:43:36.762Z,5.79
2019-03-13T00:44:36.701Z,5.76
2019-03-13T00:45:36.676Z,5.76
2019-03-13T00:46:36.584Z,5.66
2019-03-13T00:47:36.532Z,5.59
2019-03-13T00:48:36.477Z,5.50
2019-03-13T00:49:36.416Z,5.36
2019-03-13T00:50:36.386Z,5.38
2019-03-13T00:51:37.163Z,5.39
2019-03-13T00:52:36.249Z,5.36
2019-03-13T00:53:36.221Z,5.28
2019-03-13T00:54:36.137Z,5.26
2019-03-13T00:55:36.083Z,5.28
2019-03-13T00:56:36.049Z,5.23
2019-03-13T00:57:35.998Z,5.21
2019-03-13T00:58:35.913Z,5.20
2019-03-13T00:59:35.854Z,5.20
2019-03-13T01:00:35.800Z,5.17
2019-03-13T01:01:35.796Z,5.10
2019-03-13T01:02:35.685Z,5.18
2019-03-13T01:03:35.637Z,5.10
2019-03-13T01:04:35.580Z,5.10
2019-03-13T01:05:35.517Z,5.10
2019-03-13T01:06:35.493Z,5.05
2019-03-13T01:07:35.415Z,5.07
2019-03-13T01:08:35.350Z,5.05
2019-03-13T01:09:35.327Z,5.07
2019-03-13T01:10:35.235Z,5.07
2019-03-13T01:11:35.181Z,5.04
2019-03-13T01:12:35.123Z,5.08
2019-03-13T01:13:35.068Z,5.08
2019-03-13T01:14:35.040Z,5.07
2019-03-13T01:15:34.953Z,5.05
2019-03-13T01:16:34.896Z,4.94
2019-03-13T01:17:34.872Z,4.96
2019-03-13T01:18:34.783Z,4.99
2019-03-13T01:19:34.727Z,5.05
2019-03-13T01:20:34.700Z,4.99
2019-03-13T01:21:34.612Z,4.96
2019-03-13T01:22:34.558Z,4.97
2019-03-13T01:23:34.501Z,4.97
2019-03-13T01:24:34.447Z,4.92
2019-03-13T01:25:34.417Z,5.08
2019-03-13T01:26:34.329Z,4.90
2019-03-13T01:27:34.307Z,5.00
2019-03-13T01:28:34.253Z,4.93
2019-03-13T01:29:34.164Z,4.93
2019-03-13T01:30:34.102Z,5.04
2019-03-13T01:31:34.050Z,4.94
2019-03-13T01:32:33.991Z,4.96
2019-03-13T01:33:33.984Z,4.94
2019-03-13T01:34:33.878Z,4.86
2019-03-13T01:35:33.824Z,4.92
2019-03-13T01:36:33.764Z,4.92
2019-03-13T01:37:33.707Z,4.89
2019-03-13T01:38:33.690Z,4.89
2019-03-13T01:39:33.592Z,4.92
2019-03-13T01:40:33.535Z,4.87
2019-03-13T01:41:33.481Z,4.78
2019-03-13T01:42:33.427Z,4.86
2019-03-13T01:43:33.400Z,4.87
2019-03-13T01:44:33.310Z,4.80
2019-03-13T01:45:33.254Z,4.82
2019-03-13T01:46:33.196Z,4.77
2019-03-13T01:47:33.169Z,4.74
2019-03-13T01:48:33.083Z,4.86
2019-03-13T01:49:33.027Z,4.82
2019-03-13T01:50:33.065Z,4.80
2019-03-13T01:51:32.912Z,4.77
2019-03-13T01:52:32.888Z,4.75
2019-03-13T01:53:32.797Z,4.71
2019-03-13T01:54:32.741Z,4.82
2019-03-13T01:55:32.734Z,4.66
2019-03-13T01:56:32.629Z,4.68
2019-03-13T01:57:32.570Z,4.55
2019-03-13T01:58:32.511Z,4.62
2019-03-13T01:59:32.457Z,4.50
2019-03-13T02:00:32.444Z,4.55
2019-03-13T02:01:32.351Z,4.44
2019-03-13T02:02:32.285Z,4.50
2019-03-13T02:03:32.229Z,4.45
2019-03-13T02:04:32.176Z,4.40
2019-03-13T02:05:32.165Z,4.48
2019-03-13T02:06:32.057Z,4.50
2019-03-13T02:07:32.002Z,4.48
2019-03-13T02:08:31.945Z,4.45
2019-03-13T02:09:31.887Z,4.41
2019-03-13T02:10:31.862Z,4.45
2019-03-13T02:11:31.794Z,4.41
2019-03-13T02:12:31.718Z,4.35
2019-03-13T02:13:31.700Z,4.34
2019-03-13T02:14:31.603Z,4.37
2019-03-13T02:15:31.543Z,4.41
2019-03-13T02:16:31.489Z,4.38
2019-03-13T02:17:31.430Z,4.35
2019-03-13T02:18:31.416Z,4.40
2019-03-13T02:19:31.320Z,4.28
2019-03-13T02:20:31.260Z,4.24
2019-03-13T02:21:31.201Z,4.35
2019-03-13T02:22:31.146Z,4.35
2019-03-13T02:23:31.117Z,4.30
2019-03-13T02:24:31.029Z,4.31
2019-03-13T02:25:30.974Z,4.30
2019-03-13T02:26:30.922Z,4.30
2019-03-13T02:27:30.860Z,4.30
2019-03-13T02:28:30.833Z,4.31
2019-03-13T02:29:30.742Z,4.30
2019-03-13T02:30:30.686Z,4.31
2019-03-13T02:31:30.690Z,4.31
2019-03-13T02:32:30.607Z,4.28
2019-03-13T02:33:30.552Z,4.24
2019-03-13T02:34:30.461Z,4.19
2019-03-13T02:35:30.408Z,4.30
2019-03-13T02:36:30.343Z,4.20
2019-03-13T02:37:30.283Z,4.16
2019-03-13T02:38:30.262Z,4.28
2019-03-13T02:39:30.170Z,4.12
2019-03-13T02:40:30.151Z,4.19
2019-03-13T02:41:30.056Z,4.16
2019-03-13T02:42:30.001Z,4.16
2019-03-13T02:43:29.974Z,4.22
2019-03-13T02:44:29.887Z,4.16
2019-03-13T02:45:29.862Z,4.16
2019-03-13T02:46:29.770Z,4.13
2019-03-13T02:47:29.720Z,4.12
2019-03-13T02:48:29.654Z,4.12
2019-03-13T02:49:29.606Z,4.13
2019-03-13T02:50:29.574Z,4.16
2019-03-13T02:51:29.483Z,4.06
2019-03-13T02:52:29.435Z,4.06
2019-03-13T02:53:29.384Z,4.10
2019-03-13T02:54:29.312Z,4.14
2019-03-13T02:55:29.286Z,4.10
2019-03-13T02:56:29.228Z,4.13
2019-03-13T02:57:29.138Z,4.05
2019-03-13T02:58:29.083Z,4.06
2019-03-13T02:59:29.056Z,4.01
2019-03-13T03:00:29.006Z,4.10
2019-03-13T03:01:28.915Z,4.05
2019-03-13T03:02:28.851Z,4.10
2019-03-13T03:03:28.796Z,4.06
2019-03-13T03:04:28.736Z,4.06
2019-03-13T03:05:28.711Z,4.08
2019-03-13T03:06:28.622Z,4.12
2019-03-13T03:07:28.575Z,4.02
2019-03-13T03:08:28.545Z,4.13
2019-03-13T03:09:28.453Z,4.10
2019-03-13T03:10:28.392Z,4.10
2019-03-13T03:11:28.338Z,4.02
2019-03-13T03:12:28.278Z,4.08
2019-03-13T03:13:28.251Z,4.08
2019-03-13T03:14:28.162Z,4.06
2019-03-13T03:15:28.136Z,4.06
2019-03-13T03:16:28.082Z,4.05
2019-03-13T03:17:27.992Z,4.10
2019-03-13T03:18:27.932Z,4.06
2019-03-13T03:19:27.880Z,3.99
2019-03-13T03:20:27.869Z,4.08
2019-03-13T03:21:27.761Z,4.12
2019-03-13T03:22:27.705Z,4.13
2019-03-13T03:23:27.646Z,4.14
2019-03-13T03:24:27.588Z,4.10
2019-03-13T03:25:27.563Z,4.08
2019-03-13T03:26:27.475Z,4.10
2019-03-13T03:27:27.422Z,4.10
2019-03-13T03:28:27.372Z,4.13
2019-03-13T03:29:27.306Z,4.10
2019-03-13T03:30:27.293Z,4.12
2019-03-13T03:31:27.188Z,4.17
2019-03-13T03:32:27.131Z,4.17
2019-03-13T03:33:27.152Z,4.19
2019-03-13T03:34:27.014Z,4.13
2019-03-13T03:35:27.014Z,4.14
2019-03-13T03:36:26.905Z,4.08
2019-03-13T03:37:26.881Z,4.17
2019-03-13T03:38:26.784Z,4.19
2019-03-13T03:39:26.729Z,4.19
2019-03-13T03:40:26.670Z,4.16
2019-03-13T03:41:26.614Z,4.19
2019-03-13T03:42:26.595Z,4.22
2019-03-13T03:43:39.282Z,4.16
2019-03-13T03:44:26.441Z,4.19
2019-03-13T03:45:26.381Z,4.23
2019-03-13T03:46:26.328Z,4.22
2019-03-13T03:47:26.270Z,4.19
2019-03-13T03:48:26.240Z,4.19
2019-03-13T03:49:26.154Z,4.24
2019-03-13T03:50:26.096Z,4.20
2019-03-13T03:51:26.069Z,4.23
2019-03-13T03:52:25.979Z,4.20
2019-03-13T03:53:25.928Z,4.17
2019-03-13T03:54:25.907Z,4.19
2019-03-13T03:55:25.814Z,4.12
2019-03-13T03:56:25.757Z,4.12
2019-03-13T03:57:25.694Z,4.10
2019-03-13T03:58:28.894Z,4.20
2019-03-13T03:59:25.623Z,4.14
2019-03-13T04:00:25.524Z,4.20
2019-03-13T04:01:25.466Z,4.19
2019-03-13T04:02:25.408Z,4.13
2019-03-13T04:03:25.385Z,4.20
2019-03-13T04:04:25.294Z,4.16
2019-03-13T04:05:25.266Z,4.12
2019-03-13T04:06:25.176Z,4.12
2019-03-13T04:07:25.122Z,4.19
2019-03-13T04:08:25.066Z,4.19
2019-03-13T04:09:25.006Z,4.19
2019-03-13T04:10:24.981Z,4.10
2019-03-13T04:11:24.894Z,4.12
2019-03-13T04:12:24.834Z,4.13
2019-03-13T04:13:24.774Z,4.16
2019-03-13T04:14:24.717Z,4.19
2019-03-13T04:15:24.715Z,4.14
2019-03-13T04:16:24.604Z,4.02
2019-03-13T04:17:24.546Z,4.10
2019-03-13T04:18:24.488Z,4.12
2019-03-13T04:19:24.443Z,4.05
2019-03-13T04:20:24.435Z,4.05
2019-03-13T04:21:24.317Z,4.06
2019-03-13T04:22:24.259Z,3.98
2019-03-13T04:23:24.199Z,4.13
2019-03-13T04:24:24.143Z,4.12
2019-03-13T04:25:24.115Z,4.06
2019-03-13T04:26:24.028Z,4.04
2019-03-13T04:27:23.973Z,4.01
2019-03-13T04:28:23.915Z,4.06
2019-03-13T04:29:23.856Z,4.01
2019-03-13T04:30:23.832Z,4.08
2019-03-13T04:31:23.740Z,3.94
2019-03-13T04:32:23.685Z,3.98
2019-03-13T04:33:23.658Z,3.92
2019-03-13T04:34:23.567Z,3.98
2019-03-13T04:35:23.513Z,3.96
2019-03-13T04:36:23.474Z,3.98
2019-03-13T04:37:23.392Z,4.05
2019-03-13T04:38:23.334Z,4.08
2019-03-13T04:39:23.279Z,4.05
2019-03-13T04:40:23.221Z,4.02
2019-03-13T04:41:23.190Z,4.01
2019-03-13T04:42:23.105Z,3.96
2019-03-13T04:43:23.048Z,4.10
2019-03-13T04:44:22.989Z,4.02
2019-03-13T04:45:22.930Z,3.98
2019-03-13T04:46:22.902Z,3.98
2019-03-13T04:47:25.041Z,3.95
2019-03-13T04:48:22.759Z,3.98
2019-03-13T04:49:22.702Z,3.98
2019-03-13T04:50:22.642Z,4.01
2019-03-13T04:51:22.607Z,3.98
2019-03-13T04:52:22.529Z,3.95
2019-03-13T04:53:22.469Z,3.92
2019-03-13T04:54:22.411Z,3.88
2019-03-13T04:55:22.354Z,3.99
2019-03-13T04:56:22.333Z,3.96
2019-03-13T04:57:22.236Z,4.01
2019-03-13T04:58:22.178Z,4.08
2019-03-13T04:59:22.124Z,4.04
2019-03-13T05:00:22.065Z,4.06
2019-03-13T05:01:22.056Z,4.02
2019-03-13T05:02:21.954Z,4.04
2019-03-13T05:03:21.891Z,4.01
2019-03-13T05:04:21.831Z,4.02
2019-03-13T05:05:21.777Z,4.04
2019-03-13T05:06:21.777Z,3.98
2019-03-13T05:07:21.658Z,3.98
2019-03-13T05:08:21.600Z,4.04
2019-03-13T05:09:21.542Z,4.01
2019-03-13T05:10:21.496Z,4.02
2019-03-13T05:11:21.464Z,4.13
2019-03-13T05:12:21.378Z,4.04
2019-03-13T05:13:21.473Z,4.06
2019-03-13T05:14:21.267Z,4.10
2019-03-13T05:15:21.197Z,4.10
2019-03-13T05:16:21.282Z,4.08
2019-03-13T05:17:21.087Z,4.12
2019-03-13T05:18:21.381Z,4.06
2019-03-13T05:19:20.966Z,4.13
2019-03-13T05:20:20.913Z,4.10
2019-03-13T05:21:20.850Z,4.12
2019-03-13T05:22:20.788Z,4.16
2019-03-13T05:23:20.764Z,4.12
2019-03-13T05:24:20.705Z,4.14
2019-03-13T05:25:20.617Z,4.19
2019-03-13T05:26:20.555Z,4.16
2019-03-13T05:27:20.498Z,4.16
2019-03-13T05:28:20.449Z,4.16
2019-03-13T05:29:20.416Z,4.17
2019-03-13T05:30:20.328Z,4.19
2019-03-13T05:31:20.270Z,4.17
2019-03-13T05:32:20.215Z,4.12
2019-03-13T05:33:20.211Z,4.17
2019-03-13T05:34:20.100Z,4.19
2019-03-13T05:35:20.039Z,4.16
2019-03-13T05:36:20.014Z,4.14
2019-03-13T05:37:19.926Z,4.20
2019-03-13T05:38:19.866Z,4.26
2019-03-13T05:39:19.807Z,4.26
2019-03-13T05:40:19.788Z,4.23
2019-03-13T05:41:19.690Z,4.19
2019-03-13T05:42:19.634Z,4.24
2019-03-13T05:43:19.606Z,4.20
2019-03-13T05:44:19.518Z,4.12
2019-03-13T05:45:19.461Z,4.20
2019-03-13T05:46:19.437Z,4.17
2019-03-13T05:47:19.342Z,4.20
2019-03-13T05:48:19.287Z,4.16
2019-03-13T05:49:19.225Z,4.20
2019-03-13T05:50:19.167Z,4.24
2019-03-13T05:51:19.141Z,4.12
2019-03-13T05:52:19.052Z,4.13
2019-03-13T05:53:18.994Z,4.17
2019-03-13T05:54:18.935Z,4.20
2019-03-13T05:55:18.915Z,4.22
2019-03-13T05:56:18.820Z,4.17
2019-03-13T05:57:18.760Z,4.08
2019-03-13T05:58:18.726Z,4.26
2019-03-13T05:59:18.650Z,4.16
2019-03-13T06:00:18.590Z,4.30
2019-03-13T06:01:18.530Z,4.19
2019-03-13T06:02:18.471Z,4.26
2019-03-13T06:03:18.445Z,4.23
2019-03-13T06:04:18.358Z,4.22
2019-03-13T06:05:18.299Z,4.28
2019-03-13T06:06:18.242Z,4.20
2019-03-13T06:07:18.183Z,4.26
2019-03-13T06:08:18.658Z,4.30
2019-03-13T06:09:18.067Z,4.19
2019-03-13T06:10:18.011Z,4.17
2019-03-13T06:11:17.952Z,4.22
2019-03-13T06:12:17.894Z,4.32
2019-03-13T06:13:17.929Z,4.31
2019-03-13T06:14:17.783Z,4.37
2019-03-13T06:15:17.722Z,4.35
2019-03-13T06:16:17.673Z,4.35
2019-03-13T06:17:17.603Z,4.45
2019-03-13T06:18:17.583Z,4.41
2019-03-13T06:19:17.489Z,4.40
2019-03-13T06:20:17.464Z,4.35
2019-03-13T06:21:17.370Z,4.30
2019-03-13T06:22:17.316Z,4.37
2019-03-13T06:23:17.261Z,4.37
2019-03-13T06:24:17.200Z,4.31
2019-03-13T06:25:17.183Z,4.32
2019-03-13T06:26:17.115Z,4.35
2019-03-13T06:27:17.025Z,4.31
2019-03-13T06:28:16.973Z,4.30
2019-03-13T06:29:16.908Z,4.32
2019-03-13T06:30:16.920Z,4.31
2019-03-13T06:31:16.832Z,4.31
2019-03-13T06:32:16.737Z,4.31
2019-03-13T06:33:16.679Z,4.24
2019-03-13T06:34:16.623Z,4.32
2019-03-13T06:35:16.574Z,4.40
2019-03-13T06:36:16.539Z,4.37
2019-03-13T06:37:16.494Z,4.38
2019-03-13T06:38:16.391Z,4.40
2019-03-13T06:39:16.335Z,4.41
2019-03-13T06:40:16.284Z,4.38
2019-03-13T06:41:16.216Z,4.32
2019-03-13T06:42:16.188Z,4.41
2019-03-13T06:43:16.097Z,4.37
2019-03-13T06:44:16.047Z,4.32
2019-03-13T06:45:16.018Z,4.42
2019-03-13T06:46:15.956Z,4.41
2019-03-13T06:47:15.884Z,4.38
2019-03-13T06:48:15.809Z,4.34
2019-03-13T06:49:15.749Z,4.41
2019-03-13T06:50:15.727Z,4.40
2019-03-13T06:51:15.637Z,4.40
2019-03-13T06:52:15.589Z,4.37
2019-03-13T06:53:15.582Z,4.48
2019-03-13T06:54:15.466Z,4.37
2019-03-13T06:55:15.406Z,4.38
2019-03-13T06:56:15.348Z,4.40
2019-03-13T06:57:15.289Z,4.50
2019-03-13T06:58:15.264Z,4.49
2019-03-13T06:59:15.173Z,4.45
2019-03-13T07:00:15.115Z,4.42
2019-03-13T07:01:15.058Z,4.42
2019-03-13T07:02:14.999Z,4.48
2019-03-13T07:03:14.981Z,4.44
2019-03-13T07:04:14.949Z,4.44
2019-03-13T07:05:14.824Z,4.45
2019-03-13T07:06:14.769Z,4.45
2019-03-13T07:07:14.713Z,4.45
2019-03-13T07:08:14.654Z,4.50
2019-03-13T07:09:14.634Z,4.49
2019-03-13T07:10:14.538Z,4.49
2019-03-13T07:11:14.477Z,4.48
2019-03-13T07:12:14.422Z,4.49
2019-03-13T07:13:14.367Z,4.59
2019-03-13T07:14:14.364Z,4.49
2019-03-13T07:15:14.248Z,4.48
2019-03-13T07:16:14.188Z,4.45
2019-03-13T07:17:14.133Z,4.58
2019-03-13T07:18:14.076Z,4.53
2019-03-13T07:19:14.053Z,4.56
2019-03-13T07:20:13.957Z,4.58
2019-03-13T07:21:13.900Z,4.55
2019-03-13T07:22:13.841Z,4.59
2019-03-13T07:23:13.784Z,4.58
2019-03-13T07:24:13.757Z,4.59
2019-03-13T07:25:13.668Z,4.60
2019-03-13T07:26:13.620Z,4.59
2019-03-13T07:27:13.552Z,4.56
2019-03-13T07:28:13.493Z,4.56
2019-03-13T07:29:13.471Z,4.74
2019-03-13T07:30:13.415Z,4.71
2019-03-13T07:31:13.361Z,4.67
2019-03-13T07:32:13.264Z,4.77
2019-03-13T07:33:13.204Z,4.84
2019-03-13T07:34:13.154Z,4.89
2019-03-13T07:35:13.154Z,4.92
2019-03-13T07:36:13.040Z,4.87
2019-03-13T07:37:12.974Z,4.92
2019-03-13T07:38:15.519Z,4.84
2019-03-13T07:39:12.859Z,4.97
2019-03-13T07:40:12.832Z,5.00
2019-03-13T07:41:12.748Z,4.84
2019-03-13T07:42:12.690Z,4.80
2019-03-13T07:43:12.663Z,4.94
2019-03-13T07:44:12.574Z,4.86
2019-03-13T07:45:12.513Z,5.02
2019-03-13T07:46:12.457Z,5.04
2019-03-13T07:47:12.399Z,5.05
2019-03-13T07:48:12.383Z,5.15
2019-03-13T07:49:12.283Z,5.08
2019-03-13T07:50:12.234Z,5.11
2019-03-13T07:51:12.169Z,5.20
2019-03-13T07:52:12.145Z,5.15
2019-03-13T07:53:12.057Z,5.17
2019-03-13T07:54:11.998Z,5.38
2019-03-13T07:55:11.980Z,5.35
2019-03-13T07:56:11.886Z,5.32
2019-03-13T07:57:11.824Z,5.36
2019-03-13T07:58:11.766Z,5.41
2019-03-13T07:59:11.726Z,5.43
2019-03-13T08:00:11.719Z,5.35
2019-03-13T08:01:11.598Z,5.23
2019-03-13T08:02:11.541Z,5.23
2019-03-13T08:03:11.484Z,5.32
2019-03-13T08:04:11.425Z,5.39
2019-03-13T08:05:11.401Z,5.68
2019-03-13T08:06:11.312Z,6.01
2019-03-13T08:07:11.256Z,6.30
2019-03-13T08:08:11.232Z,6.79
2019-03-13T08:09:11.141Z,6.20
2019-03-13T08:10:11.089Z,6.01
2019-03-13T08:11:11.083Z,6.08
2019-03-13T08:12:10.973Z,5.99
2019-03-13T08:13:10.926Z,6.11
2019-03-13T08:14:10.860Z,6.05
2019-03-13T08:15:10.804Z,5.82
2019-03-13T08:16:10.793Z,5.76
2019-03-13T08:17:10.692Z,5.61
2019-03-13T08:18:10.636Z,5.41
2019-03-13T08:19:10.579Z,5.41
2019-03-13T08:20:10.524Z,5.36
2019-03-13T08:21:10.487Z,5.28
2019-03-13T08:22:10.435Z,5.25
2019-03-13T08:23:10.355Z,5.07
2019-03-13T08:24:10.297Z,5.17
2019-03-13T08:25:10.239Z,5.10
2019-03-13T08:26:10.230Z,5.10
2019-03-13T08:27:10.128Z,5.05
2019-03-13T08:28:10.078Z,5.02
2019-03-13T08:29:10.015Z,5.00
2019-03-13T08:30:09.958Z,5.04
2019-03-13T08:31:09.933Z,4.94
2019-03-13T08:32:09.844Z,4.97
2019-03-13T08:33:09.825Z,4.92
2019-03-13T08:34:09.730Z,4.96
2019-03-13T08:35:09.672Z,4.90
2019-03-13T08:36:09.621Z,4.94
2019-03-13T08:37:09.560Z,4.92
2019-03-13T08:38:09.534Z,4.87
2019-03-13T08:39:09.524Z,4.82
2019-03-13T08:40:09.388Z,4.78
2019-03-13T08:41:09.329Z,4.82
2019-03-13T08:42:09.273Z,4.86
2019-03-13T08:43:09.248Z,4.93
2019-03-13T08:44:09.161Z,4.92
2019-03-13T08:45:09.107Z,4.92
2019-03-13T08:46:09.042Z,4.94
2019-03-13T08:47:09.021Z,4.80
2019-03-13T08:48:08.931Z,4.86
2019-03-13T08:49:08.871Z,4.82
2019-03-13T08:50:08.814Z,4.93
2019-03-13T08:51:08.759Z,4.84
2019-03-13T08:52:08.723Z,4.89
2019-03-13T08:53:08.643Z,4.86
2019-03-13T08:54:08.588Z,4.90
2019-03-13T08:55:08.537Z,4.94
2019-03-13T08:56:08.470Z,4.94
2019-03-13T08:57:08.443Z,4.89
2019-03-13T08:58:08.355Z,4.94
2019-03-13T08:59:08.297Z,5.00
2019-03-13T09:00:08.242Z,5.00
2019-03-13T09:01:08.221Z,5.08
2019-03-13T09:02:08.145Z,5.12
2019-03-13T09:03:08.069Z,5.12
2019-03-13T09:04:08.048Z,5.18
2019-03-13T09:05:07.954Z,5.12
2019-03-13T09:06:08.076Z,5.11
2019-03-13T09:07:07.839Z,5.15
2019-03-13T09:08:07.786Z,5.07
2019-03-13T09:09:07.765Z,5.07
2019-03-13T09:10:07.669Z,5.02
2019-03-13T09:11:07.612Z,4.96
2019-03-13T09:12:07.554Z,5.02
2019-03-13T09:13:07.498Z,5.02
2019-03-13T09:14:07.468Z,5.04
2019-03-13T09:15:07.382Z,5.05
2019-03-13T09:16:07.322Z,4.96
2019-03-13T09:17:07.266Z,4.97
2019-03-13T09:18:07.207Z,5.00
2019-03-13T09:19:07.185Z,4.97
2019-03-13T09:20:07.095Z,5.02
2019-03-13T09:21:07.039Z,5.02
2019-03-13T09:22:06.979Z,5.04
2019-03-13T09:23:06.927Z,4.97
2019-03-13T09:24:06.900Z,5.00
2019-03-13T09:25:12.329Z,5.07
2019-03-13T09:26:06.748Z,4.99
2019-03-13T09:27:06.696Z,5.02
2019-03-13T09:28:06.650Z,5.02
2019-03-13T09:29:06.609Z,5.02
2019-03-13T09:30:06.522Z,4.99
2019-03-13T09:31:06.497Z,4.94
2019-03-13T09:32:06.408Z,5.07
2019-03-13T09:33:06.347Z,4.97
2019-03-13T09:34:06.292Z,5.04
2019-03-13T09:35:06.237Z,4.99
2019-03-13T09:36:06.220Z,5.02
2019-03-13T09:37:06.120Z,5.02
2019-03-13T09:38:06.062Z,5.02
2019-03-13T09:39:06.008Z,5.05
2019-03-13T09:40:05.953Z,5.04
2019-03-13T09:41:05.922Z,5.05
2019-03-13T09:42:05.837Z,4.99
2019-03-13T09:43:05.775Z,5.02
2019-03-13T09:44:05.718Z,4.94
2019-03-13T09:45:05.708Z,4.94
2019-03-13T09:46:05.606Z,4.92
2019-03-13T09:47:05.546Z,4.97
2019-03-13T09:48:05.490Z,4.97
2019-03-13T09:49:05.473Z,4.97
2019-03-13T09:50:05.379Z,4.94
2019-03-13T09:51:05.316Z,4.92
2019-03-13T09:52:05.264Z,4.97
2019-03-13T09:53:05.203Z,5.00
2019-03-13T09:54:05.197Z,5.04
2019-03-13T09:55:05.090Z,5.04
2019-03-13T09:56:05.031Z,4.99
2019-03-13T09:57:04.970Z,5.04
2019-03-13T09:58:04.915Z,5.05
2019-03-13T09:59:04.889Z,5.05
2019-03-13T10:00:04.833Z,5.12
2019-03-13T10:01:04.743Z,5.12
2019-03-13T10:02:04.683Z,5.25
2019-03-13T10:03:04.642Z,5.33
2019-03-13T10:04:04.574Z,5.39
2019-03-13T10:05:04.544Z,5.48
2019-03-13T10:06:04.455Z,5.59
2019-03-13T10:07:04.403Z,5.68
2019-03-13T10:08:04.341Z,5.64
2019-03-13T10:09:04.282Z,5.75
2019-03-13T10:10:04.257Z,5.75
2019-03-13T10:11:04.171Z,5.79
2019-03-13T10:12:04.111Z,5.79
2019-03-13T10:13:04.059Z,5.93
2019-03-13T10:14:03.999Z,5.97
2019-03-13T10:15:03.972Z,5.94
2019-03-13T10:16:03.957Z,5.91
2019-03-13T10:17:10.607Z,5.98
2019-03-13T10:18:03.770Z,5.90
2019-03-13T10:19:03.720Z,5.93
2019-03-13T10:20:03.656Z,5.99
2019-03-13T10:21:03.623Z,5.97
2019-03-13T10:22:03.575Z,5.98
2019-03-13T10:23:03.487Z,5.94
2019-03-13T10:24:03.431Z,5.87
2019-03-13T10:25:03.425Z,5.86
2019-03-13T10:26:03.330Z,5.91
2019-03-13T10:27:03.259Z,5.98
2019-03-13T10:28:03.205Z,6.02
2019-03-13T10:29:03.145Z,6.02
2019-03-13T10:30:03.120Z,6.02
2019-03-13T10:31:03.035Z,6.02
2019-03-13T10:32:02.976Z,6.05
2019-03-13T10:33:02.920Z,6.01
2019-03-13T10:34:02.867Z,6.09
2019-03-13T10:35:02.843Z,6.07
2019-03-13T10:36:02.751Z,6.26
2019-03-13T10:37:02.694Z,6.33
2019-03-13T10:38:13.269Z,6.45
2019-03-13T10:39:02.578Z,6.42
2019-03-13T10:40:02.555Z,6.28
2019-03-13T10:41:02.464Z,6.26
2019-03-13T10:42:02.410Z,6.31
2019-03-13T10:43:02.363Z,6.38
2019-03-13T10:44:02.299Z,6.41
2019-03-13T10:45:02.274Z,6.38
2019-03-13T10:46:02.183Z,6.41
2019-03-13T10:47:02.134Z,6.42
2019-03-13T10:48:02.075Z,6.49
2019-03-13T10:49:02.014Z,6.48
2019-03-13T10:50:02.000Z,6.46
2019-03-13T10:51:01.903Z,6.49
2019-03-13T10:52:01.848Z,6.51
2019-03-13T10:53:01.787Z,6.57
2019-03-13T10:54:01.735Z,6.54
2019-03-13T10:55:01.748Z,6.56
2019-03-13T10:56:01.619Z,6.59
2019-03-13T10:57:01.561Z,6.59
2019-03-13T10:58:01.507Z,6.57
2019-03-13T10:59:01.456Z,6.72
2019-03-13T11:00:01.433Z,6.74
2019-03-13T11:01:01.342Z,6.74
2019-03-13T11:02:01.283Z,6.74
2019-03-13T11:03:01.258Z,6.70
2019-03-13T11:04:01.168Z,6.70
2019-03-13T11:05:01.113Z,6.93
2019-03-13T11:06:01.059Z,6.99
2019-03-13T11:07:01.002Z,6.97
2019-03-13T11:08:01.016Z,6.96
2019-03-13T11:09:00.887Z,6.89
2019-03-13T11:10:00.841Z,6.75
2019-03-13T11:11:00.778Z,6.66
2019-03-13T11:12:00.884Z,6.60
2019-03-13T11:13:00.699Z,6.59
2019-03-13T11:14:00.616Z,6.62
2019-03-13T11:15:00.564Z,6.56
2019-03-13T11:16:00.534Z,6.64
2019-03-13T11:17:00.443Z,6.66
2019-03-13T11:18:00.440Z,6.74
2019-03-13T11:19:00.332Z,6.67
2019-03-13T11:20:00.516Z,6.67
2019-03-13T11:21:00.219Z,6.56
2019-03-13T11:22:00.165Z,6.57
2019-03-13T11:23:00.143Z,6.57
2019-03-13T11:24:01.074Z,6.74
2019-03-13T11:24:59.992Z,6.70
2019-03-13T11:25:59.941Z,6.72
2019-03-13T11:26:59.880Z,6.70
2019-03-13T11:27:59.857Z,6.52
2019-03-13T11:28:59.774Z,6.42
2019-03-13T11:29:59.711Z,6.36
2019-03-13T11:30:59.658Z,6.33
2019-03-13T11:31:59.602Z,6.42
2019-03-13T11:32:59.585Z,6.24
2019-03-13T11:33:59.485Z,6.39
2019-03-13T11:34:59.433Z,6.33
2019-03-13T11:35:59.377Z,6.36
2019-03-13T11:36:59.324Z,6.36
2019-03-13T11:37:59.293Z,6.39
2019-03-13T11:38:59.211Z,6.45
2019-03-13T11:39:59.149Z,6.31
2019-03-13T11:40:59.135Z,6.26
2019-03-13T11:41:59.039Z,6.31
2019-03-13T11:42:58.990Z,6.35
2019-03-13T11:43:58.932Z,6.36
2019-03-13T11:44:58.870Z,6.24
2019-03-13T11:45:58.845Z,6.41
2019-03-13T11:46:58.760Z,6.45
2019-03-13T11:47:58.703Z,6.42
2019-03-13T11:48:58.677Z,6.49
2019-03-13T11:49:58.588Z,6.59
2019-03-13T11:50:58.535Z,6.59
2019-03-13T11:51:58.482Z,6.62
2019-03-13T11:52:58.419Z,6.69
2019-03-13T11:53:58.397Z,6.72
2019-03-13T11:54:58.307Z,6.70
2019-03-13T11:55:58.252Z,6.77
2019-03-13T11:56:58.196Z,6.78
2019-03-13T11:57:58.181Z,6.87
2019-03-13T11:58:58.083Z,7.07
2019-03-13T11:59:58.025Z,7.05
2019-03-13T12:00:57.980Z,6.99
2019-03-13T12:01:57.918Z,7.02
2019-03-13T12:02:57.896Z,6.92
2019-03-13T12:03:57.806Z,6.75
2019-03-13T12:04:57.789Z,6.72
2019-03-13T12:05:57.731Z,6.78
2019-03-13T12:06:57.635Z,6.74
2019-03-13T12:07:57.581Z,6.70
2019-03-13T12:08:57.528Z,6.69
2019-03-13T12:09:57.500Z,6.60
2019-03-13T12:10:57.414Z,6.59
2019-03-13T12:11:57.359Z,6.57
2019-03-13T12:12:57.302Z,6.45
2019-03-13T12:13:57.277Z,6.41
2019-03-13T12:14:57.190Z,6.38
2019-03-13T12:15:57.133Z,6.28
2019-03-13T12:16:57.115Z,6.39
2019-03-13T12:17:57.019Z,6.42
2019-03-13T12:18:56.962Z,6.24
2019-03-13T12:19:56.910Z,6.24
2019-03-13T12:20:59.260Z,6.22
2019-03-13T12:21:56.829Z,6.26
2019-03-13T12:22:56.738Z,6.30
2019-03-13T12:23:56.684Z,6.33
2019-03-13T12:24:56.626Z,6.31
2019-03-13T12:25:56.607Z,6.24
2019-03-13T12:26:56.513Z,6.16
2019-03-13T12:27:56.493Z,6.08
2019-03-13T12:28:56.401Z,6.04
2019-03-13T12:29:56.345Z,5.87
2019-03-13T12:30:56.322Z,5.82
2019-03-13T12:31:56.235Z,5.76
2019-03-13T12:32:56.173Z,5.65
2019-03-13T12:33:56.120Z,5.72
2019-03-13T12:34:56.100Z,5.66
2019-03-13T12:35:56.009Z,5.76
2019-03-13T12:36:55.952Z,5.73
2019-03-13T12:37:55.896Z,5.83
2019-03-13T12:38:55.840Z,5.75
2019-03-13T12:39:55.810Z,5.84
2019-03-13T12:40:55.721Z,5.89
2019-03-13T12:41:55.668Z,5.91
2019-03-13T12:42:55.609Z,5.94
2019-03-13T12:43:55.554Z,5.84
2019-03-13T12:44:55.525Z,5.94
2019-03-13T12:45:55.438Z,5.87
2019-03-13T12:46:55.381Z,5.93
2019-03-13T12:47:55.328Z,5.87
2019-03-13T12:48:55.268Z,5.87
2019-03-13T12:49:55.242Z,5.93
2019-03-13T12:50:55.199Z,5.93
2019-03-13T12:51:55.103Z,5.91
2019-03-13T12:52:55.076Z,5.93
2019-03-13T12:53:54.983Z,5.86
2019-03-13T12:54:54.931Z,5.93
2019-03-13T12:55:54.910Z,6.05
2019-03-13T12:56:54.817Z,6.08
2019-03-13T12:57:54.759Z,6.05
2019-03-13T12:58:54.702Z,6.09
2019-03-13T12:59:54.678Z,6.05
2019-03-13T13:00:54.625Z,6.05
2019-03-13T13:01:54.530Z,6.01
2019-03-13T13:02:55.063Z,6.12
2019-03-13T13:03:54.420Z,6.17
2019-03-13T13:04:54.361Z,6.12
2019-03-13T13:05:54.350Z,6.16
2019-03-13T13:06:54.253Z,6.12
2019-03-13T13:07:54.193Z,6.11
2019-03-13T13:08:54.135Z,6.12
2019-03-13T13:09:54.078Z,6.12
2019-03-13T13:10:54.054Z,6.16
2019-03-13T13:11:53.970Z,6.16
2019-03-13T13:12:53.908Z,6.16
2019-03-13T13:13:53.854Z,6.16
2019-03-13T13:14:53.798Z,6.17
2019-03-13T13:15:53.775Z,6.24
2019-03-13T13:16:53.690Z,6.20
2019-03-13T13:17:53.664Z,6.17